Time;durP1;ratioP1;P1;durP2;ratioP2;P2;SDS_P1;SDS_P2;PMS_P1;PMS_P2;Temp;Humidity;BMP_temperature;BMP_pressure;BME280_temperature;BME280_humidity;BME280_pressure;Samples;Min_cycle;Max_cycle;Signal;HPM_P1;HPM_P2
2022/11/22 00:03:01;;;;;;;3.20;2.50;;;;;;;16.55;79.29;98998.91;20775489;28;20049;-85
2022/11/22 00:13:03;;;;;;;3.30;2.53;;;;;;;15.55;79.14;98815.03;20801003;28;20605;-87
2022/11/22 00:23:04;;;;;;;3.05;2.20;;;;;;;16.56;79.29;98962.13;20790622;28;20071;-86
2022/11/22 00:33:06;;;;;;;2.47;2.20;;;;;;;16.57;79.33;98950.38;20767626;28;20077;-86
2022/11/22 00:43:07;;;;;;;2.67;2.22;;;;;;;16.56;79.24;98944.19;20790317;28;20526;-87
2022/11/22 00:53:09;;;;;;;3.95;2.40;;;;;;;16.56;79.28;98933.44;20769797;28;20053;-87
2022/11/22 01:03:12;;;;;;;2.80;2.53;;;;;;;16.56;79.22;98929.88;20767157;28;20053;-86
2022/11/22 01:13:14;;;;;;;2.88;1.95;;;;;;;16.37;79.10;98897.09;20788340;28;20094;-87
2022/11/22 01:23:15;;;;;;;2.90;2.40;;;;;;;16.35;79.11;98897.28;20773180;28;20049;-87
2022/11/22 01:33:17;;;;;;;3.05;2.25;;;;;;;16.56;79.17;98917.31;20743949;28;20506;-87
2022/11/22 01:43:21;;;;;;;2.58;2.10;;;;;;;16.55;79.13;98915.63;20762869;28;20453;-87
2022/11/22 01:53:28;;;;;;;2.40;2.10;;;;;;;16.56;79.17;98920.00;20758189;28;20109;-87
2022/11/22 02:03:31;;;;;;;2.70;2.33;;;;;;;16.57;79.03;98904.69;20768066;28;20118;-87
2022/11/22 02:13:34;;;;;;;2.90;2.22;;;;;;;16.56;78.99;98906.56;20791713;28;20045;-87
2022/11/22 02:23:55;;;;;;;2.40;2.10;;;;;;;16.56;79.04;98874.34;20758217;28;20096;-87
2022/11/22 02:33:57;;;;;;;2.38;2.00;;;;;;;16.02;78.92;98787.38;20760252;28;20123;-87
2022/11/22 02:44:02;;;;;;;2.67;2.20;;;;;;;16.34;78.92;98843.75;20770475;28;20409;-87
2022/11/22 02:54:04;;;;;;;2.17;1.85;;;;;;;16.50;78.85;98869.66;20777162;28;20056;-87
2022/11/22 03:04:05;;;;;;;2.15;1.80;;;;;;;16.57;78.87;98891.28;20731435;28;20061;-87
2022/11/22 03:14:07;;;;;;;2.10;1.73;;;;;;;16.37;78.74;98862.19;20771630;28;20065;-87
2022/11/22 03:24:09;;;;;;;2.13;1.80;;;;;;;16.26;78.71;98855.34;20767135;28;20502;-87
2022/11/22 03:34:11;;;;;;;2.10;1.90;;;;;;;16.47;78.94;98888.81;20779515;28;20096;-86
2022/11/22 03:44:12;;;;;;;1.85;1.70;;;;;;;16.56;78.81;98906.56;20768911;28;20052;-87
2022/11/22 03:54:14;;;;;;;1.67;1.58;;;;;;;16.56;78.86;98906.56;20773542;28;20041;-87
2022/11/22 04:04:15;;;;;;;1.63;1.42;;;;;;;16.57;78.71;98915.44;20752181;28;20058;-86
2022/11/22 04:34:57;;;;;;;2.00;1.58;;;;;;;16.37;78.66;98897.09;20776359;28;20041;-87
2022/11/22 04:44:58;;;;;;;1.67;1.50;;;;;;;16.56;78.67;98929.88;20760793;28;20065;-87
2022/11/22 04:54:59;;;;;;;1.67;1.50;;;;;;;16.56;78.72;98927.22;20792259;28;20136;-87
2022/11/22 05:05:01;;;;;;;1.60;1.40;;;;;;;16.55;78.60;98915.63;20757168;28;20056;-87
2022/11/22 05:15:04;;;;;;;1.48;1.35;;;;;;;16.56;78.22;98927.22;20790820;28;20704;-86
2022/11/22 05:25:05;;;;;;;1.85;1.50;;;;;;;16.56;78.62;98938.81;20792181;28;20068;-87
2022/11/22 05:35:07;;;;;;;1.40;1.20;;;;;;;16.56;78.66;98937.94;20754156;28;20119;-87
2022/11/22 05:45:08;;;;;;;1.65;1.30;;;;;;;16.55;78.57;98934.44;20765155;28;20065;-87
2022/11/22 05:55:10;;;;;;;1.70;1.60;;;;;;;16.56;78.52;98937.94;20779575;28;20049;-86
2022/11/22 06:05:11;;;;;;;1.20;1.10;;;;;;;16.55;78.59;98939.81;20737751;28;20450;-86
2022/11/22 06:15:13;;;;;;;1.60;1.02;;;;;;;16.55;78.46;98942.50;20771586;28;20060;-87
2022/11/22 06:25:14;;;;;;;1.48;1.20;;;;;;;16.56;78.53;98943.31;20750435;28;20112;-87
2022/11/22 06:35:16;;;;;;;1.35;1.10;;;;;;;16.50;78.55;98937.66;20739064;28;20104;-87
2022/11/22 06:45:17;;;;;;;1.35;1.20;;;;;;;16.55;78.50;98966.69;20781163;28;20132;-87
2022/11/22 06:55:19;;;;;;;1.05;0.95;;;;;;;16.56;78.58;98970.19;20761517;28;20046;-87
2022/11/22 07:05:51;;;;;;;1.40;1.20;;;;;;;16.55;78.45;98969.38;20779625;28;20484;-86
2022/11/22 07:15:55;;;;;;;1.23;0.95;;;;;;;16.55;78.47;98977.44;20792445;28;20129;-87
2022/11/22 07:25:56;;;;;;;1.00;0.90;;;;;;;16.56;78.44;98997.91;20791677;28;20045;-87
2022/11/22 07:36:08;;;;;;;1.33;1.10;;;;;;;16.56;78.44;98997.06;20772910;28;20053;-87
2022/11/22 07:46:30;;;;;;;1.30;1.20;;;;;;;16.55;78.23;99020.41;20779948;28;20136;-88
2022/11/22 07:56:33;;;;;;;1.67;1.20;;;;;;;16.58;76.84;99017.38;20758229;28;20145;-91
2022/11/22 08:06:34;;;;;;;2.03;1.10;;;;;;;16.68;77.65;99012.63;20761249;28;20089;-95
2022/11/22 08:16:36;;;;;;;2.15;1.13;;;;;;;16.61;80.03;98992.84;20802846;28;20516;-95
2022/11/22 08:26:37;;;;;;;1.45;1.10;;;;;;;16.85;81.11;99028.69;20790983;28;20045;-96
2022/11/22 08:36:38;;;;;;;1.65;1.15;;;;;;;16.90;81.41;99031.69;20805907;28;20490;-93
2022/11/22 08:46:40;;;;;;;2.20;1.25;;;;;;;16.76;81.74;99008.22;20812605;28;20069;-94
2022/11/22 08:56:41;;;;;;;2.17;0.95;;;;;;;16.79;81.95;99019.47;20791840;28;20045;-93
2022/11/22 09:06:42;;;;;;;1.83;1.17;;;;;;;16.83;81.90;99030.72;20791899;28;20057;-95
2022/11/22 09:17:05;;;;;;;1.25;1.08;;;;;;;17.01;82.35;99059.22;20786729;28;20060;-94
2022/11/22 09:27:06;;;;;;;1.20;0.93;;;;;;;16.82;82.08;99045.97;20763655;28;20046;-94
2022/11/22 09:37:08;;;;;;;1.77;1.30;;;;;;;17.05;82.10;99077.50;20774608;28;20079;-93
2022/11/22 09:47:24;;;;;;;3.97;1.13;;;;;;;17.07;82.15;99080.00;20734558;28;20049;-93
2022/11/22 09:57:33;;;;;;;1.73;1.17;;;;;;;16.79;82.00;99058.91;20784892;28;20045;-95
2022/11/22 10:07:39;;;;;;;0.82;0.70;;;;;;;16.70;82.32;99060.81;20761972;28;20056;-87
2022/11/22 10:17:53;;;;;;;2.20;1.08;;;;;;;17.11;77.43;99110.91;20755267;28;20053;-89
2022/11/22 10:27:57;;;;;;;2.42;0.90;;;;;;;17.06;75.03;99099.84;20755573;28;20061;-88
2022/11/22 10:38:28;;;;;;;2.33;0.90;;;;;;;17.23;73.64;99116.75;20759522;28;20041;-88
2022/11/22 10:48:38;;;;;;;3.95;0.82;;;;;;;17.08;72.69;99079.00;20743799;28;20049;-89
2022/11/22 10:59:19;;;;;;;1.83;0.93;;;;;;;17.33;72.05;99092.31;20753338;28;20056;-90
2022/11/22 11:09:43;;;;;;;1.85;0.77;;;;;;;17.37;72.64;99085.56;20544929;28;20046;-88
2022/11/22 11:20:20;;;;;;;1.85;0.70;;;;;;;17.28;73.17;99076.72;20762863;28;20437;-89
2022/11/22 11:30:21;;;;;;;1.00;0.80;;;;;;;17.30;73.53;99088.13;20734024;28;20041;-92
2022/11/22 11:40:28;;;;;;;1.92;0.95;;;;;;;17.20;73.93;99074.88;20771143;28;20049;-86
2022/11/22 11:50:30;;;;;;;1.25;0.70;;;;;;;17.24;74.17;99075.38;20752758;28;20053;-89
2022/11/22 12:00:37;;;;;;;1.55;1.02;;;;;;;16.99;74.26;99045.94;20757678;28;20050;-88
2022/11/22 12:10:57;;;;;;;1.25;0.70;;;;;;;17.20;74.65;99072.19;20775798;28;20077;-88
2022/11/22 12:21:15;;;;;;;1.35;0.77;;;;;;;17.19;74.62;99073.22;20753928;28;20202;-88
2022/11/22 12:31:22;;;;;;;1.50;0.68;;;;;;;17.18;74.69;99078.78;20704925;28;20129;-87
2022/11/22 12:41:26;;;;;;;1.90;0.75;;;;;;;17.18;74.95;99087.69;20751803;28;20383;-89
2022/11/22 12:51:36;;;;;;;2.80;0.90;;;;;;;17.17;75.15;99075.25;20737995;28;20068;-89
2022/11/22 13:01:40;;;;;;;1.30;0.68;;;;;;;17.16;75.10;99084.31;20735467;28;20041;-89
2022/11/22 13:11:56;;;;;;;1.63;0.90;;;;;;;16.82;75.16;99035.25;20767785;28;20053;-90
2022/11/22 13:22:26;;;;;;;2.35;0.52;;;;;;;17.16;75.33;99095.09;20765821;28;20529;-90
2022/11/22 13:32:34;;;;;;;1.75;0.70;;;;;;;17.15;75.18;99097.97;20756669;28;20054;-91
2022/11/22 13:42:36;;;;;;;2.03;0.95;;;;;;;17.16;75.53;99097.78;20756572;28;20140;-89
2022/11/22 13:52:58;;;;;;;0.95;0.68;;;;;;;17.14;75.63;99091.72;20726577;28;20056;-90
2022/11/22 14:03:18;;;;;;;1.75;0.70;;;;;;;17.16;75.78;99068.19;20755802;28;20057;-89
2022/11/22 14:13:47;;;;;;;1.13;0.60;;;;;;;17.15;76.07;99090.72;20717692;28;20060;-88
2022/11/22 14:24:06;;;;;;;2.10;1.05;;;;;;;17.15;76.09;99082.66;20743130;28;20041;-93
2022/11/22 14:34:14;;;;;;;1.17;0.65;;;;;;;16.89;76.06;99039.91;20748061;28;20041;-89
2022/11/22 14:44:18;;;;;;;1.35;0.60;;;;;;;17.15;76.18;99079.16;20753600;28;20099;-88
2022/11/22 14:54:43;;;;;;;1.13;0.60;;;;;;;17.14;76.31;99070.22;20733148;28;20060;-90
2022/11/22 15:05:29;;;;;;;1.20;0.50;;;;;;;17.15;76.25;99066.53;20707444;28;20064;-91
2022/11/22 15:15:53;;;;;;;1.23;0.60;;;;;;;17.14;76.19;99064.84;20740046;28;20511;-90
2022/11/22 15:26:17;;;;;;;2.20;0.70;;;;;;;17.15;76.27;99060.31;20757394;28;20497;-91
2022/11/22 15:36:56;;;;;;;1.60;0.80;;;;;;;17.14;76.30;99059.47;20749211;28;20208;-87
2022/11/22 15:47:19;;;;;;;2.63;0.77;;;;;;;17.14;76.12;99062.16;20758738;28;20049;-87
2022/11/22 15:57:42;;;;;;;2.15;1.00;;;;;;;17.14;76.27;99069.41;20760566;28;20057;-88
2022/11/22 16:07:47;;;;;;;0.80;0.80;;;;;;;17.13;76.06;99068.56;20743229;28;20088;-90
2022/11/22 16:17:50;;;;;;;1.13;0.60;;;;;;;16.92;76.10;99050.31;20777333;28;20053;-93
2022/11/22 16:28:03;;;;;;;1.52;0.70;;;;;;;17.14;76.20;99083.66;20732727;28;20108;-91
2022/11/22 16:38:08;;;;;;;1.17;0.50;;;;;;;16.96;76.07;99057.00;20775237;28;20056;-93
2022/11/22 16:48:15;;;;;;;0.88;0.50;;;;;;;17.16;76.25;99088.88;20788156;28;20052;-94
2022/11/22 16:58:32;;;;;;;2.15;0.65;;;;;;;17.16;76.54;99095.09;20766381;28;20049;-95
2022/11/22 17:08:33;;;;;;;2.33;1.00;;;;;;;17.17;76.88;99086.00;20764046;28;20057;-88
2022/11/22 17:18:35;;;;;;;1.52;0.50;;;;;;;16.82;78.92;99037.09;20747471;28;20115;-88
2022/11/22 17:28:37;;;;;;;1.10;0.52;;;;;;;17.21;79.49;99111.53;20746737;28;20052;-87
2022/11/22 17:38:38;;;;;;;2.13;1.10;;;;;;;17.23;80.12;99112.22;20740937;28;20119;-88
2022/11/22 17:48:40;;;;;;;1.23;0.60;;;;;;;17.24;80.37;99099.59;20756302;28;20123;-89
2022/11/22 17:58:41;;;;;;;0.63;0.50;;;;;;;17.25;80.54;99120.94;20746834;28;20052;-89
2022/11/22 18:08:43;;;;;;;3.10;0.60;;;;;;;16.98;81.06;99059.56;20768767;28;20049;-90
2022/11/22 18:18:47;;;;;;;1.37;0.57;;;;;;;17.15;81.36;99093.41;20747653;28;20108;-90
2022/11/22 18:28:58;;;;;;;1.75;0.70;;;;;;;17.32;82.12;99125.63;20741747;28;20094;-88
2022/11/22 18:39:21;;;;;;;1.17;0.50;;;;;;;17.34;82.15;99126.28;20765019;28;20103;-87
2022/11/22 18:49:22;;;;;;;1.27;0.70;;;;;;;17.24;81.78;99099.59;20740641;28;20053;-88
2022/11/22 18:59:24;;;;;;;1.00;0.60;;;;;;;17.31;81.35;99130.16;20791696;28;20053;-88
2022/11/22 19:09:25;;;;;;;1.60;0.60;;;;;;;17.23;81.09;99144.50;20791988;28;20115;-88
2022/11/22 19:19:30;;;;;;;1.00;0.50;;;;;;;17.19;81.28;99147.69;20774709;28;20160;-88
2022/11/22 19:29:32;;;;;;;1.38;0.50;;;;;;;16.56;81.12;99040.03;20791503;28;20128;-88
2022/11/22 19:39:34;;;;;;;1.73;0.70;;;;;;;17.11;81.27;99140.47;20791495;28;20053;-88
2022/11/22 19:49:36;;;;;;;1.33;0.50;;;;;;;17.08;81.21;99143.53;20776036;28;20164;-88
2022/11/22 19:59:37;;;;;;;1.98;0.60;;;;;;;17.05;81.10;99144.72;20784734;28;20083;-88
2022/11/22 20:09:39;;;;;;;0.68;0.40;;;;;;;17.03;81.09;99146.75;20804998;28;20054;-89
2022/11/22 20:19:40;;;;;;;0.88;0.47;;;;;;;17.01;80.91;99150.63;20787050;28;20053;-88
2022/11/22 20:29:42;;;;;;;1.00;0.50;;;;;;;16.89;80.73;99132.16;20786284;28;20049;-88
2022/11/22 20:39:43;;;;;;;2.17;0.68;;;;;;;16.99;80.77;99158.00;20785070;28;20049;-88
2022/11/22 20:49:45;;;;;;;1.25;0.50;;;;;;;16.98;80.75;99156.34;20807409;28;20049;-87
2022/11/22 20:59:46;;;;;;;0.65;0.52;;;;;;;16.96;80.72;99162.69;20799523;28;20056;-84
2022/11/22 21:09:47;;;;;;;0.75;0.43;;;;;;;16.94;80.58;99159.34;20783004;28;20058;-88
2022/11/22 21:19:49;;;;;;;1.27;0.63;;;;;;;16.94;80.58;99156.66;20798930;28;20095;-88
2022/11/22 21:29:50;;;;;;;1.75;0.50;;;;;;;16.92;80.61;99161.38;20780618;28;20100;-88
2022/11/22 21:39:51;;;;;;;0.38;0.30;;;;;;;16.81;80.57;99151.81;20797562;28;20037;-89
2022/11/22 21:49:53;;;;;;;0.65;0.40;;;;;;;16.92;80.54;99169.44;20798747;28;20060;-88
2022/11/22 21:59:54;;;;;;;0.90;0.50;;;;;;;16.80;80.47;99158.19;20778855;28;20526;-88
2022/11/22 22:09:56;;;;;;;1.25;0.57;;;;;;;16.90;80.41;99190.25;20795055;28;20053;-88
2022/11/22 22:19:57;;;;;;;0.63;0.30;;;;;;;16.90;80.29;99187.56;20777049;28;20045;-89
2022/11/22 22:29:59;;;;;;;0.60;0.45;;;;;;;16.60;80.20;99146.97;20794150;28;20510;-87
2022/11/22 22:40:01;;;;;;;1.33;0.50;;;;;;;16.89;80.22;99185.91;20793930;28;20087;-88
2022/11/22 22:50:02;;;;;;;0.50;0.40;;;;;;;16.88;80.26;99178.00;20764332;28;20494;-88
2022/11/22 23:00:04;;;;;;;0.60;0.40;;;;;;;16.48;80.20;99124.19;20775334;28;20387;-88
2022/11/22 23:10:06;;;;;;;0.55;0.40;;;;;;;16.86;80.36;99188.94;20775120;28;20045;-88
2022/11/22 23:20:08;;;;;;;0.47;0.40;;;;;;;16.86;80.30;99182.69;20774546;28;20502;-89
2022/11/22 23:30:10;;;;;;;0.40;0.30;;;;;;;16.83;80.29;99189.28;20780305;28;20060;-88
2022/11/22 23:40:11;;;;;;;0.20;0.20;;;;;;;16.85;80.17;99194.47;20806946;28;20068;-87
2022/11/22 23:50:13;;;;;;;0.82;0.40;;;;;;;16.81;80.07;99194.81;20788757;28;20083;-88
